sensor_id;sensor_type;location;lat;lon;timestamp;pressure;altitude;pressure_sealevel;temperature;humidity
37610;BME280;23457;51.966;8.230;2022-11-02T00:01:18;100943.78;;;13.31;75.68
37610;BME280;23457;51.966;8.230;2022-11-02T00:03:47;100939.53;;;13.43;75.31
37610;BME280;23457;51.966;8.230;2022-11-02T00:06:13;100936.78;;;13.23;75.93
37610;BME280;23457;51.966;8.230;2022-11-02T00:08:40;100928.97;;;13.26;75.86
37610;BME280;23457;51.966;8.230;2022-11-02T00:11:07;100930.78;;;13.35;75.50
37610;BME280;23457;51.966;8.230;2022-11-02T00:13:33;100909.94;;;13.40;75.17
37610;BME280;23457;51.966;8.230;2022-11-02T00:16:02;100936.94;;;13.42;75.25
37610;BME280;23457;51.966;8.230;2022-11-02T00:18:30;100922.16;;;13.47;75.07
37610;BME280;23457;51.966;8.230;2022-11-02T00:20:58;100917.66;;;13.27;75.85
37610;BME280;23457;51.966;8.230;2022-11-02T00:23:24;100916.81;;;13.29;76.07
37610;BME280;23457;51.966;8.230;2022-11-02T00:25:51;100930.78;;;13.37;76.21
37610;BME280;23457;51.966;8.230;2022-11-02T00:28:19;100916.91;;;13.42;75.95
37610;BME280;23457;51.966;8.230;2022-11-02T00:30:46;100921.16;;;13.33;76.14
37610;BME280;23457;51.966;8.230;2022-11-02T00:33:13;100923.84;;;13.37;76.72
37610;BME280;23457;51.966;8.230;2022-11-02T00:35:40;100917.88;;;13.55;75.81
37610;BME280;23457;51.966;8.230;2022-11-02T00:38:07;100912.75;;;13.67;75.42
37610;BME280;23457;51.966;8.230;2022-11-02T00:40:34;100914.41;;;13.59;75.37
37610;BME280;23457;51.966;8.230;2022-11-02T00:43:01;100917.91;;;13.61;75.57
37610;BME280;23457;51.966;8.230;2022-11-02T00:45:28;100903.94;;;13.57;75.81
37610;BME280;23457;51.966;8.230;2022-11-02T00:47:55;100920.47;;;13.56;76.23
37610;BME280;23457;51.966;8.230;2022-11-02T00:50:21;100896.03;;;13.42;76.04
37610;BME280;23457;51.966;8.230;2022-11-02T00:52:48;100903.94;;;13.53;76.04
37610;BME280;23457;51.966;8.230;2022-11-02T00:55:15;100906.53;;;13.50;76.64
37610;BME280;23457;51.966;8.230;2022-11-02T00:57:43;100898.75;;;13.59;76.86
37610;BME280;23457;51.966;8.230;2022-11-02T01:00:11;100884.91;;;13.74;75.78
37610;BME280;23457;51.966;8.230;2022-11-02T01:02:38;100892.00;;;13.93;75.05
37610;BME280;23457;51.966;8.230;2022-11-02T01:05:06;100881.50;;;13.85;75.25
37610;BME280;23457;51.966;8.230;2022-11-02T01:07:33;100886.59;;;13.69;75.90
37610;BME280;23457;51.966;8.230;2022-11-02T01:10:00;100877.00;;;13.63;76.90
37610;BME280;23457;51.966;8.230;2022-11-02T01:12:27;100878.81;;;13.75;77.07
37610;BME280;23457;51.966;8.230;2022-11-02T01:14:54;100891.03;;;13.77;76.93
37610;BME280;23457;51.966;8.230;2022-11-02T01:17:20;100885.78;;;13.74;77.08
37610;BME280;23457;51.966;8.230;2022-11-02T01:19:49;100876.19;;;13.67;77.43
37610;BME280;23457;51.966;8.230;2022-11-02T01:22:16;100879.75;;;13.87;76.87
37610;BME280;23457;51.966;8.230;2022-11-02T01:24:43;100877.03;;;13.66;77.06
37610;BME280;23457;51.966;8.230;2022-11-02T01:27:09;100879.72;;;13.81;76.80
37610;BME280;23457;51.966;8.230;2022-11-02T01:29:36;100879.88;;;14.06;76.27
37610;BME280;23457;51.966;8.230;2022-11-02T01:32:03;100874.47;;;13.75;77.69
37610;BME280;23457;51.966;8.230;2022-11-02T01:34:29;100877.16;;;13.87;78.13
37610;BME280;23457;51.966;8.230;2022-11-02T01:36:56;100873.63;;;13.81;78.05
37610;BME280;23457;51.966;8.230;2022-11-02T01:39:22;100874.56;;;13.90;78.45
37610;BME280;23457;51.966;8.230;2022-11-02T01:41:50;100876.25;;;13.82;79.89
37610;BME280;23457;51.966;8.230;2022-11-02T01:44:36;100888.44;;;13.80;80.16
37610;BME280;23457;51.966;8.230;2022-11-02T01:47:32;100875.47;;;14.00;78.87
37610;BME280;23457;51.966;8.230;2022-11-02T01:50:24;100877.09;;;13.81;79.67
37610;BME280;23457;51.966;8.230;2022-11-02T01:52:53;100851.81;;;13.74;79.75
37610;BME280;23457;51.966;8.230;2022-11-02T01:55:25;100857.03;;;13.71;80.38
37610;BME280;23457;51.966;8.230;2022-11-02T01:57:59;100865.81;;;13.85;80.61
37610;BME280;23457;51.966;8.230;2022-11-02T02:00:27;100875.34;;;13.76;80.46
37610;BME280;23457;51.966;8.230;2022-11-02T02:02:59;100866.72;;;13.89;80.52
37610;BME280;23457;51.966;8.230;2022-11-02T02:05:28;100876.22;;;13.76;81.56
37610;BME280;23457;51.966;8.230;2022-11-02T02:07:56;100867.56;;;13.80;81.69
37610;BME280;23457;51.966;8.230;2022-11-02T02:10:23;100862.38;;;13.89;81.19
37610;BME280;23457;51.966;8.230;2022-11-02T02:12:50;100876.34;;;14.01;80.21
37610;BME280;23457;51.966;8.230;2022-11-02T02:15:23;100878.91;;;13.96;80.94
37610;BME280;23457;51.966;8.230;2022-11-02T02:18:12;100873.78;;;14.11;80.80
37610;BME280;23457;51.966;8.230;2022-11-02T02:20:57;100871.16;;;14.13;80.81
37610;BME280;23457;51.966;8.230;2022-11-02T02:34:50;100860.56;;;13.76;82.24
37610;BME280;23457;51.966;8.230;2022-11-02T02:37:24;100869.22;;;13.72;82.96
37610;BME280;23457;51.966;8.230;2022-11-02T02:40:07;100863.13;;;13.67;82.92
37610;BME280;23457;51.966;8.230;2022-11-02T02:42:43;100844.78;;;13.61;82.82
37610;BME280;23457;51.966;8.230;2022-11-02T02:45:28;100861.47;;;13.87;82.07
37610;BME280;23457;51.966;8.230;2022-11-02T02:48:11;100851.00;;;13.80;82.43
37610;BME280;23457;51.966;8.230;2022-11-02T02:50:47;100854.31;;;13.51;83.01
37610;BME280;23457;51.966;8.230;2022-11-02T02:53:19;100860.47;;;13.64;83.02
37610;BME280;23457;51.966;8.230;2022-11-02T02:55:49;100869.19;;;13.63;82.77
37610;BME280;23457;51.966;8.230;2022-11-02T02:58:20;100863.19;;;13.78;81.98
37610;BME280;23457;51.966;8.230;2022-11-02T03:00:48;100867.53;;;13.83;81.29
37610;BME280;23457;51.966;8.230;2022-11-02T03:03:19;100860.47;;;13.64;81.79
37610;BME280;23457;51.966;8.230;2022-11-02T03:15:13;100869.19;;;13.63;81.70
37610;BME280;23457;51.966;8.230;2022-11-02T03:17:47;100872.69;;;13.71;81.01
37610;BME280;23457;51.966;8.230;2022-11-02T03:20:25;100864.81;;;13.62;80.77
37610;BME280;23457;51.966;8.230;2022-11-02T03:23:15;100861.31;;;13.58;80.55
37610;BME280;23457;51.966;8.230;2022-11-02T03:26:00;100862.22;;;13.65;80.76
37610;BME280;23457;51.966;8.230;2022-11-02T03:31:45;100867.47;;;13.65;80.41
37610;BME280;23457;51.966;8.230;2022-11-02T03:36:53;100877.91;;;13.65;80.29
37610;BME280;23457;51.966;8.230;2022-11-02T03:39:34;100874.44;;;13.66;80.43
37610;BME280;23457;51.966;8.230;2022-11-02T03:42:04;100874.31;;;13.49;80.80
37610;BME280;23457;51.966;8.230;2022-11-02T03:44:37;100874.41;;;13.63;80.34
37610;BME280;23457;51.966;8.230;2022-11-02T03:47:09;100885.72;;;13.63;80.46
37610;BME280;23457;51.966;8.230;2022-11-02T03:49:39;100870.94;;;13.70;79.88
37610;BME280;23457;51.966;8.230;2022-11-02T03:52:11;100891.78;;;13.55;80.10
37610;BME280;23457;51.966;8.230;2022-11-02T03:54:48;100903.16;;;13.69;80.01
37610;BME280;23457;51.966;8.230;2022-11-02T03:57:20;100899.72;;;13.76;79.44
37610;BME280;23457;51.966;8.230;2022-11-02T03:59:49;100891.84;;;13.67;80.15
37610;BME280;23457;51.966;8.230;2022-11-02T04:02:16;100895.28;;;13.63;80.38
37610;BME280;23457;51.966;8.230;2022-11-02T04:04:48;100904.03;;;13.70;80.27
37610;BME280;23457;51.966;8.230;2022-11-02T04:07:21;100904.91;;;13.72;79.78
37610;BME280;23457;51.966;8.230;2022-11-02T04:09:50;100902.22;;;13.58;80.16
37610;BME280;23457;51.966;8.230;2022-11-02T04:12:16;100905.69;;;13.57;80.25
37610;BME280;23457;51.966;8.230;2022-11-02T04:15:02;100911.84;;;13.68;80.44
37610;BME280;23457;51.966;8.230;2022-11-02T04:17:29;100910.19;;;13.82;79.55
37610;BME280;23457;51.966;8.230;2022-11-02T04:20:15;100916.13;;;13.57;80.71
37610;BME280;23457;51.966;8.230;2022-11-02T04:22:42;100911.09;;;13.84;79.47
37610;BME280;23457;51.966;8.230;2022-11-02T04:25:27;100913.72;;;13.86;79.09
37610;BME280;23457;51.966;8.230;2022-11-02T04:28:20;100915.44;;;13.84;79.03
37610;BME280;23457;51.966;8.230;2022-11-02T04:30:57;100923.41;;;14.04;78.38
37610;BME280;23457;51.966;8.230;2022-11-02T04:33:33;100915.41;;;13.76;79.79
37610;BME280;23457;51.966;8.230;2022-11-02T04:36:07;100924.03;;;13.65;80.37
37610;BME280;23457;51.966;8.230;2022-11-02T04:38:36;100921.44;;;13.69;80.36
37610;BME280;23457;51.966;8.230;2022-11-02T04:41:19;100928.47;;;13.76;80.63
37610;BME280;23457;51.966;8.230;2022-11-02T04:44:09;100927.56;;;13.74;80.22
37610;BME280;23457;51.966;8.230;2022-11-02T04:46:38;100925.84;;;13.76;80.58
37610;BME280;23457;51.966;8.230;2022-11-02T04:49:07;100926.66;;;13.65;80.89
37610;BME280;23457;51.966;8.230;2022-11-02T04:51:35;100926.66;;;13.66;81.11
37610;BME280;23457;51.966;8.230;2022-11-02T04:54:02;100920.69;;;13.85;80.16
37610;BME280;23457;51.966;8.230;2022-11-02T04:56:30;100922.38;;;13.82;80.07
37610;BME280;23457;51.966;8.230;2022-11-02T04:58:58;100935.38;;;13.71;80.85
37610;BME280;23457;51.966;8.230;2022-11-02T05:01:28;100932.81;;;13.76;80.17
37610;BME280;23457;51.966;8.230;2022-11-02T05:03:57;100924.94;;;13.67;80.37
37610;BME280;23457;51.966;8.230;2022-11-02T05:06:26;100928.50;;;13.82;79.91
37610;BME280;23457;51.966;8.230;2022-11-02T05:08:54;100921.53;;;13.84;79.45
37610;BME280;23457;51.966;8.230;2022-11-02T05:11:22;100908.47;;;13.80;79.25
37610;BME280;23457;51.966;8.230;2022-11-02T05:13:49;100920.75;;;13.97;79.16
37610;BME280;23457;51.966;8.230;2022-11-02T05:16:17;100927.72;;;13.97;78.75
37610;BME280;23457;51.966;8.230;2022-11-02T05:18:45;100931.09;;;13.81;79.48
37610;BME280;23457;51.966;8.230;2022-11-02T05:21:14;100926.78;;;13.87;78.78
37610;BME280;23457;51.966;8.230;2022-11-02T05:23:40;100930.31;;;13.95;78.71
37610;BME280;23457;51.966;8.230;2022-11-02T05:26:10;100924.19;;;13.93;78.31
37610;BME280;23457;51.966;8.230;2022-11-02T05:28:41;100925.88;;;13.79;79.34
37610;BME280;23457;51.966;8.230;2022-11-02T05:31:07;100934.50;;;13.71;79.02
37610;BME280;23457;51.966;8.230;2022-11-02T05:33:35;100923.19;;;13.72;78.90
37610;BME280;23457;51.966;8.230;2022-11-02T05:36:09;100932.75;;;13.65;79.07
37610;BME280;23457;51.966;8.230;2022-11-02T05:38:38;100940.53;;;13.60;78.92
37610;BME280;23457;51.966;8.230;2022-11-02T05:41:11;100944.91;;;13.61;79.37
37610;BME280;23457;51.966;8.230;2022-11-02T05:43:39;100935.34;;;13.62;78.59
37610;BME280;23457;51.966;8.230;2022-11-02T05:46:09;100932.66;;;13.51;79.28
37610;BME280;23457;51.966;8.230;2022-11-02T05:48:35;100933.66;;;13.73;79.00
37610;BME280;23457;51.966;8.230;2022-11-02T05:51:03;100937.13;;;13.72;78.31
37610;BME280;23457;51.966;8.230;2022-11-02T05:53:30;100944.09;;;13.67;78.30
37610;BME280;23457;51.966;8.230;2022-11-02T05:56:00;100937.09;;;13.69;78.79
37610;BME280;23457;51.966;8.230;2022-11-02T05:58:28;100952.69;;;13.57;78.80
37610;BME280;23457;51.966;8.230;2022-11-02T06:01:01;100955.41;;;13.71;78.29
37610;BME280;23457;51.966;8.230;2022-11-02T06:03:28;100956.19;;;13.54;78.97
37610;BME280;23457;51.966;8.230;2022-11-02T06:05:56;100970.03;;;13.49;79.42
37610;BME280;23457;51.966;8.230;2022-11-02T06:08:23;100960.53;;;13.58;79.15
37610;BME280;23457;51.966;8.230;2022-11-02T06:10:50;100959.56;;;13.46;79.12
37610;BME280;23457;51.966;8.230;2022-11-02T06:13:17;100972.63;;;13.47;79.34
37610;BME280;23457;51.966;8.230;2022-11-02T06:15:43;100977.06;;;13.53;78.96
37610;BME280;23457;51.966;8.230;2022-11-02T06:18:10;100978.72;;;13.46;79.53
37610;BME280;23457;51.966;8.230;2022-11-02T06:20:36;100982.25;;;13.50;79.40
37610;BME280;23457;51.966;8.230;2022-11-02T06:23:03;100983.06;;;13.46;79.04
37610;BME280;23457;51.966;8.230;2022-11-02T06:25:30;100993.50;;;13.44;78.94
37610;BME280;23457;51.966;8.230;2022-11-02T06:27:57;100997.97;;;13.59;78.74
37610;BME280;23457;51.966;8.230;2022-11-02T06:30:27;100994.47;;;13.54;78.51
37610;BME280;23457;51.966;8.230;2022-11-02T06:32:54;100994.50;;;13.60;78.33
37610;BME280;23457;51.966;8.230;2022-11-02T06:35:21;101009.16;;;13.44;79.27
37610;BME280;23457;51.966;8.230;2022-11-02T06:37:48;100997.13;;;13.61;77.88
37610;BME280;23457;51.966;8.230;2022-11-02T06:40:15;101011.88;;;13.56;78.33
37610;BME280;23457;51.966;8.230;2022-11-02T06:42:45;101022.38;;;13.61;78.62
37610;BME280;23457;51.966;8.230;2022-11-02T06:45:32;101024.16;;;13.63;77.85
37610;BME280;23457;51.966;8.230;2022-11-02T06:47:59;101025.91;;;13.69;77.51
37610;BME280;23457;51.966;8.230;2022-11-02T06:50:25;101017.22;;;13.67;77.43
37610;BME280;23457;51.966;8.230;2022-11-02T06:52:52;101037.16;;;13.60;77.85
37610;BME280;23457;51.966;8.230;2022-11-02T06:55:18;101035.50;;;13.72;77.59
37610;BME280;23457;51.966;8.230;2022-11-02T06:57:45;101033.75;;;13.71;77.45
37610;BME280;23457;51.966;8.230;2022-11-02T07:00:13;101050.41;;;13.79;76.78
37610;BME280;23457;51.966;8.230;2022-11-02T07:03:05;101044.25;;;13.74;76.73
37610;BME280;23457;51.966;8.230;2022-11-02T07:05:35;101053.63;;;13.52;77.80
37610;BME280;23457;51.966;8.230;2022-11-02T07:08:03;101057.22;;;13.63;76.92
37610;BME280;23457;51.966;8.230;2022-11-02T07:10:30;101045.94;;;13.66;76.64
37610;BME280;23457;51.966;8.230;2022-11-02T07:12:57;101061.72;;;13.82;76.55
37610;BME280;23457;51.966;8.230;2022-11-02T07:15:25;101070.31;;;13.69;76.86
37610;BME280;23457;51.966;8.230;2022-11-02T07:17:52;101081.81;;;13.89;76.18
37610;BME280;23457;51.966;8.230;2022-11-02T07:20:19;101077.41;;;13.82;76.24
37610;BME280;23457;51.966;8.230;2022-11-02T07:22:56;101067.81;;;13.80;76.24
37610;BME280;23457;51.966;8.230;2022-11-02T07:25:24;101086.06;;;13.77;76.20
37610;BME280;23457;51.966;8.230;2022-11-02T07:27:53;101081.50;;;13.56;77.17
37610;BME280;23457;51.966;8.230;2022-11-02T07:30:20;101085.16;;;13.73;75.82
37610;BME280;23457;51.966;8.230;2022-11-02T07:32:47;101092.88;;;13.61;76.07
37610;BME280;23457;51.966;8.230;2022-11-02T07:35:14;101093.88;;;13.75;75.33
37610;BME280;23457;51.966;8.230;2022-11-02T07:37:41;101100.69;;;13.59;76.21
37610;BME280;23457;51.966;8.230;2022-11-02T07:40:10;101105.06;;;13.60;76.07
37610;BME280;23457;51.966;8.230;2022-11-02T07:42:44;101099.03;;;13.66;75.59
37610;BME280;23457;51.966;8.230;2022-11-02T07:45:14;101119.81;;;13.57;75.55
37610;BME280;23457;51.966;8.230;2022-11-02T07:47:42;101115.56;;;13.63;74.84
37610;BME280;23457;51.966;8.230;2022-11-02T07:50:11;101116.44;;;13.64;74.69
37610;BME280;23457;51.966;8.230;2022-11-02T07:52:51;101104.53;;;13.96;73.69
37610;BME280;23457;51.966;8.230;2022-11-02T07:55:20;101120.00;;;13.75;73.39
37610;BME280;23457;51.966;8.230;2022-11-02T08:00:24;101140.16;;;13.87;72.94
37610;BME280;23457;51.966;8.230;2022-11-02T08:02:58;101151.66;;;14.07;71.62
37610;BME280;23457;51.966;8.230;2022-11-02T08:05:27;101156.84;;;14.03;72.29
37610;BME280;23457;51.966;8.230;2022-11-02T08:08:02;101163.59;;;13.78;72.70
37610;BME280;23457;51.966;8.230;2022-11-02T08:10:31;101155.78;;;13.84;72.54
37610;BME280;23457;51.966;8.230;2022-11-02T08:13:10;101155.91;;;13.96;72.79
37610;BME280;23457;51.966;8.230;2022-11-02T08:15:37;101154.91;;;13.83;72.24
37610;BME280;23457;51.966;8.230;2022-11-02T08:18:11;101167.06;;;13.81;72.63
37610;BME280;23457;51.966;8.230;2022-11-02T08:20:38;101160.97;;;13.78;71.86
37610;BME280;23457;51.966;8.230;2022-11-02T08:23:05;101163.69;;;13.90;71.98
37610;BME280;23457;51.966;8.230;2022-11-02T08:25:33;101169.66;;;13.75;71.99
37610;BME280;23457;51.966;8.230;2022-11-02T08:28:00;101169.94;;;14.04;71.20
37610;BME280;23457;51.966;8.230;2022-11-02T08:30:29;101174.00;;;13.76;71.43
37610;BME280;23457;51.966;8.230;2022-11-02T08:33:02;101174.00;;;13.76;71.94
37610;BME280;23457;51.966;8.230;2022-11-02T08:35:29;101173.16;;;13.77;71.46
37610;BME280;23457;51.966;8.230;2022-11-02T08:37:57;101182.84;;;13.87;71.36
37610;BME280;23457;51.966;8.230;2022-11-02T08:40:25;101190.72;;;13.93;71.89
37610;BME280;23457;51.966;8.230;2022-11-02T08:43:03;101181.25;;;14.08;71.51
37610;BME280;23457;51.966;8.230;2022-11-02T08:45:31;101192.50;;;13.97;71.17
37610;BME280;23457;51.966;8.230;2022-11-02T08:48:17;101198.88;;;14.25;70.19
37610;BME280;23457;51.966;8.230;2022-11-02T08:50:44;101199.72;;;14.23;70.24
37610;BME280;23457;51.966;8.230;2022-11-02T08:53:11;101202.91;;;13.91;70.63
37610;BME280;23457;51.966;8.230;2022-11-02T08:55:37;101197.88;;;14.13;69.90
37610;BME280;23457;51.966;8.230;2022-11-02T08:58:04;101197.91;;;14.19;69.49
37610;BME280;23457;51.966;8.230;2022-11-02T09:00:32;101197.03;;;14.14;70.25
37610;BME280;23457;51.966;8.230;2022-11-02T09:05:29;101202.38;;;14.32;68.38
37610;BME280;23457;51.966;8.230;2022-11-02T09:08:00;101212.13;;;14.47;68.09
37610;BME280;23457;51.966;8.230;2022-11-02T09:10:28;101194.59;;;14.35;67.40
37610;BME280;23457;51.966;8.230;2022-11-02T09:12:58;101231.81;;;14.10;67.97
37610;BME280;23457;51.966;8.230;2022-11-02T09:15:26;101225.09;;;14.36;67.71
37610;BME280;23457;51.966;8.230;2022-11-02T09:17:53;101226.06;;;14.43;67.07
37610;BME280;23457;51.966;8.230;2022-11-02T09:20:20;101230.31;;;14.34;66.60
37610;BME280;23457;51.966;8.230;2022-11-02T09:22:48;101230.19;;;14.21;66.83
37610;BME280;23457;51.966;8.230;2022-11-02T09:25:15;101243.44;;;14.39;67.12
37610;BME280;23457;51.966;8.230;2022-11-02T09:27:42;101247.63;;;14.22;67.46
37610;BME280;23457;51.966;8.230;2022-11-02T09:30:11;101226.78;;;14.28;67.25
37610;BME280;23457;51.966;8.230;2022-11-02T09:32:38;101258.19;;;14.31;66.98
37610;BME280;23457;51.966;8.230;2022-11-02T09:35:08;101257.25;;;14.24;67.41
37610;BME280;23457;51.966;8.230;2022-11-02T09:37:35;101258.00;;;14.13;67.37
37610;BME280;23457;51.966;8.230;2022-11-02T09:40:03;101258.97;;;14.22;66.52
37610;BME280;23457;51.966;8.230;2022-11-02T09:42:47;101254.72;;;14.35;66.75
37610;BME280;23457;51.966;8.230;2022-11-02T09:45:20;101254.84;;;14.43;66.56
37610;BME280;23457;51.966;8.230;2022-11-02T09:47:54;101263.59;;;14.48;67.14
37610;BME280;23457;51.966;8.230;2022-11-02T09:50:49;101263.00;;;14.84;66.39
37610;BME280;23457;51.966;8.230;2022-11-02T09:53:32;101263.88;;;14.84;66.28
37610;BME280;23457;51.966;8.230;2022-11-02T09:56:03;101274.50;;;15.04;65.69
37610;BME280;23457;51.966;8.230;2022-11-02T09:58:38;101285.63;;;14.77;66.17
37610;BME280;23457;51.966;8.230;2022-11-02T10:01:25;101272.44;;;14.63;67.24
37610;BME280;23457;51.966;8.230;2022-11-02T10:04:25;101282.94;;;14.69;66.47
37610;BME280;23457;51.966;8.230;2022-11-02T10:10:13;101284.44;;;14.40;67.33
37610;BME280;23457;51.966;8.230;2022-11-02T10:15:40;101290.75;;;14.62;65.12
37610;BME280;23457;51.966;8.230;2022-11-02T10:18:22;101295.28;;;14.86;64.61
37610;BME280;23457;51.966;8.230;2022-11-02T10:20:50;101296.41;;;15.17;64.52
37610;BME280;23457;51.966;8.230;2022-11-02T10:23:32;101311.16;;;15.04;66.23
37610;BME280;23457;51.966;8.230;2022-11-02T10:26:01;101300.50;;;14.83;65.45
37610;BME280;23457;51.966;8.230;2022-11-02T10:28:32;101309.28;;;14.88;66.05
37610;BME280;23457;51.966;8.230;2022-11-02T10:31:07;101317.19;;;14.94;65.19
37610;BME280;23457;51.966;8.230;2022-11-02T10:33:41;101310.97;;;14.80;65.92
37610;BME280;23457;51.966;8.230;2022-11-02T10:41:39;101308.19;;;14.61;64.01
37610;BME280;23457;51.966;8.230;2022-11-02T10:47:30;101316.16;;;14.77;63.36
37610;BME280;23457;51.966;8.230;2022-11-02T10:53:00;101313.56;;;14.83;60.99
37610;BME280;23457;51.966;8.230;2022-11-02T10:58:26;101327.09;;;15.47;59.95
37610;BME280;23457;51.966;8.230;2022-11-02T11:01:10;101330.66;;;15.52;58.70
37610;BME280;23457;51.966;8.230;2022-11-02T11:04:03;101331.47;;;15.43;58.11
37610;BME280;23457;51.966;8.230;2022-11-02T11:06:35;101335.19;;;15.80;58.48
37610;BME280;23457;51.966;8.230;2022-11-02T11:09:05;101334.22;;;15.60;58.01
37610;BME280;23457;51.966;8.230;2022-11-02T11:11:35;101340.31;;;15.60;57.17
37610;BME280;23457;51.966;8.230;2022-11-02T11:14:06;101345.59;;;15.65;56.29
37610;BME280;23457;51.966;8.230;2022-11-02T11:17:00;101352.66;;;15.80;55.96
37610;BME280;23457;51.966;8.230;2022-11-02T11:19:51;101355.34;;;15.93;56.25
37610;BME280;23457;51.966;8.230;2022-11-02T11:22:28;101358.03;;;16.15;55.05
37610;BME280;23457;51.966;8.230;2022-11-02T11:27:46;101350.97;;;15.97;54.47
37610;BME280;23457;51.966;8.230;2022-11-02T11:33:16;101353.50;;;15.74;55.69
37610;BME280;23457;51.966;8.230;2022-11-02T11:35:48;101367.59;;;16.00;55.41
37610;BME280;23457;51.966;8.230;2022-11-02T11:38:17;101355.38;;;16.02;55.31
37610;BME280;23457;51.966;8.230;2022-11-02T11:40:47;101348.34;;;15.89;55.20
37610;BME280;23457;51.966;8.230;2022-11-02T11:43:24;101359.81;;;16.25;55.24
37610;BME280;23457;51.966;8.230;2022-11-02T11:46:02;101366.88;;;16.41;54.85
37610;BME280;23457;51.966;8.230;2022-11-02T11:48:44;101367.72;;;16.37;54.57
37610;BME280;23457;51.966;8.230;2022-11-02T11:54:17;101361.50;;;16.10;53.18
37610;BME280;23457;51.966;8.230;2022-11-02T11:56:45;101365.78;;;15.84;53.11
37610;BME280;23457;51.966;8.230;2022-11-02T11:59:22;101364.91;;;15.87;53.33
37610;BME280;23457;51.966;8.230;2022-11-02T12:01:59;101365.00;;;16.09;52.64
37610;BME280;23457;51.966;8.230;2022-11-02T12:16:02;101366.56;;;15.65;53.05
37610;BME280;23457;51.966;8.230;2022-11-02T12:18:50;101354.38;;;15.76;52.98
37610;BME280;23457;51.966;8.230;2022-11-02T12:21:49;101359.66;;;15.85;52.89
37610;BME280;23457;51.966;8.230;2022-11-02T12:27:06;101350.13;;;15.99;51.39
37610;BME280;23457;51.966;8.230;2022-11-02T12:41:11;101358.94;;;16.23;51.42
37610;BME280;23457;51.966;8.230;2022-11-02T12:43:46;101347.63;;;16.39;50.84
37610;BME280;23457;51.966;8.230;2022-11-02T12:48:54;101350.28;;;16.60;50.62
37610;BME280;23457;51.966;8.230;2022-11-02T12:51:28;101351.97;;;16.34;50.49
37610;BME280;23457;51.966;8.230;2022-11-02T12:54:31;101364.25;;;16.47;50.69
37610;BME280;23457;51.966;8.230;2022-11-02T12:57:15;101355.50;;;16.39;50.86
37610;BME280;23457;51.966;8.230;2022-11-02T12:59:51;101345.84;;;16.35;50.35
37610;BME280;23457;51.966;8.230;2022-11-02T13:02:28;101367.78;;;16.57;49.95
37610;BME280;23457;51.966;8.230;2022-11-02T13:05:12;101342.41;;;16.51;50.17
37610;BME280;23457;51.966;8.230;2022-11-02T13:07:45;101364.31;;;16.76;49.87
37610;BME280;23457;51.966;8.230;2022-11-02T13:10:24;101365.88;;;16.11;50.02
37610;BME280;23457;51.966;8.230;2022-11-02T13:12:57;101361.56;;;16.24;49.59
37610;BME280;23457;51.966;8.230;2022-11-02T13:15:27;101358.09;;;16.27;49.79
37610;BME280;23457;51.966;8.230;2022-11-02T13:18:10;101350.94;;;15.86;49.39
37610;BME280;23457;51.966;8.230;2022-11-02T13:20:54;101374.53;;;15.89;49.88
37610;BME280;23457;51.966;8.230;2022-11-02T13:26:22;101328.09;;;15.62;50.40
37610;BME280;23457;51.966;8.230;2022-11-02T13:33:22;101366.78;;;16.07;50.16
37610;BME280;23457;51.966;8.230;2022-11-02T13:36:05;101329.16;;;15.95;50.17
37610;BME280;23457;51.966;8.230;2022-11-02T13:38:39;101361.50;;;16.01;50.70
37610;BME280;23457;51.966;8.230;2022-11-02T13:50:43;101343.88;;;15.73;50.29
37610;BME280;23457;51.966;8.230;2022-11-02T13:53:31;101371.13;;;16.07;50.38
37610;BME280;23457;51.966;8.230;2022-11-02T13:56:23;101371.84;;;15.75;50.82
37610;BME280;23457;51.966;8.230;2022-11-02T13:59:34;101369.34;;;15.98;50.85
37610;BME280;23457;51.966;8.230;2022-11-02T14:02:35;101360.69;;;16.24;50.90
37610;BME280;23457;51.966;8.230;2022-11-02T14:05:59;101290.66;;;15.80;50.41
37610;BME280;23457;51.966;8.230;2022-11-02T14:21:40;101373.78;;;16.18;50.42
37610;BME280;23457;51.966;8.230;2022-11-02T14:29:54;101325.53;;;15.74;50.41
37610;BME280;23457;51.966;8.230;2022-11-02T14:33:03;101368.50;;;16.08;50.18
37610;BME280;23457;51.966;8.230;2022-11-02T14:48:46;101337.81;;;15.80;50.38
37610;BME280;23457;51.966;8.230;2022-11-02T14:51:20;101346.50;;;15.73;51.03
37610;BME280;23457;51.966;8.230;2022-11-02T14:54:19;101304.34;;;15.30;51.29
37610;BME280;23457;51.966;8.230;2022-11-02T15:02:52;101356.97;;;15.73;52.04
37610;BME280;23457;51.966;8.230;2022-11-02T15:05:37;101359.66;;;15.79;51.27
37610;BME280;23457;51.966;8.230;2022-11-02T15:08:26;101367.50;;;15.84;52.08
37610;BME280;23457;51.966;8.230;2022-11-02T15:14:50;101344.81;;;15.87;52.40
37610;BME280;23457;51.966;8.230;2022-11-02T15:23:20;101351.56;;;15.49;53.29
37610;BME280;23457;51.966;8.230;2022-11-02T15:26:10;101315.53;;;15.11;53.93
37610;BME280;23457;51.966;8.230;2022-11-02T15:28:57;101352.34;;;15.29;54.01
37610;BME280;23457;51.966;8.230;2022-11-02T15:31:41;101352.38;;;15.35;53.62
37610;BME280;23457;51.966;8.230;2022-11-02T15:34:41;101352.28;;;15.22;54.24
37610;BME280;23457;51.966;8.230;2022-11-02T15:37:18;101352.31;;;15.26;54.41
37610;BME280;23457;51.966;8.230;2022-11-02T15:40:42;101342.66;;;15.18;54.54
37610;BME280;23457;51.966;8.230;2022-11-02T15:54:20;101313.47;;;14.70;54.68
37610;BME280;23457;51.966;8.230;2022-11-02T16:04:14;101339.09;;;15.05;54.70
37610;BME280;23457;51.966;8.230;2022-11-02T16:07:07;101341.63;;;14.94;55.34
37610;BME280;23457;51.966;8.230;2022-11-02T16:09:47;101279.31;;;14.51;55.24
37610;BME280;23457;51.966;8.230;2022-11-02T16:12:54;101351.19;;;14.91;56.27
37610;BME280;23457;51.966;8.230;2022-11-02T16:15:43;101273.16;;;14.47;56.46